Time;durP1;ratioP1;P1;durP2;ratioP2;P2;SDS_P1;SDS_P2;PMS_P1;PMS_P2;Temp;Humidity;BMP_temperature;BMP_pressure;BME280_temperature;BME280_humidity;BME280_pressure;Samples;Min_cycle;Max_cycle;Signal;HPM_P1;HPM_P2
2022/05/31 00:01:28;;;;;;;13.22;10.50;;;;;;;19.02;100.00;100673.51;1704607;83;21074;-75
2022/05/31 00:03:55;;;;;;;12.03;10.75;;;;;;;18.74;100.00;100672.97;1704474;84;21023;-75
2022/05/31 00:06:23;;;;;;;12.10;10.70;;;;;;;18.95;100.00;100673.61;1704653;84;21599;-75
2022/05/31 00:08:52;;;;;;;12.98;10.40;;;;;;;18.59;100.00;100673.66;1722975;83;21099;-76
2022/05/31 00:11:20;;;;;;;13.50;11.68;;;;;;;18.49;100.00;100677.05;1731293;83;21049;-76
2022/05/31 00:13:47;;;;;;;17.40;10.80;;;;;;;18.40;100.00;100679.40;1731415;83;21120;-76
2022/05/31 00:16:15;;;;;;;13.58;11.05;;;;;;;18.34;100.00;100671.22;1731321;83;21569;-76
2022/05/31 00:18:44;;;;;;;14.33;12.05;;;;;;;18.46;100.00;100679.42;1731290;83;21144;-75
2022/05/31 00:21:11;;;;;;;17.12;12.73;;;;;;;18.77;100.00;100675.33;1700308;83;21080;-75
2022/05/31 00:23:41;;;;;;;16.07;14.05;;;;;;;18.51;100.00;100681.23;1731843;83;21092;-76
2022/05/31 00:26:10;;;;;;;19.73;13.53;;;;;;;18.44;100.00;100672.19;1731731;83;21053;-76
2022/05/31 00:28:37;;;;;;;18.65;13.38;;;;;;;18.45;100.00;100676.48;1731477;83;21029;-76
2022/05/31 00:31:07;;;;;;;17.75;14.30;;;;;;;18.39;100.00;100670.42;1731798;83;21033;-76
2022/05/31 00:33:34;;;;;;;18.70;13.50;;;;;;;18.40;100.00;100671.58;1731696;83;21624;-76
2022/05/31 00:36:01;;;;;;;22.25;15.23;;;;;;;18.43;100.00;100666.64;1731501;83;21052;-75
2022/05/31 00:38:29;;;;;;;19.65;14.83;;;;;;;18.44;100.00;100666.98;1731733;83;21048;-76
2022/05/31 00:41:23;;;;;;;20.37;13.80;;;;;;;18.45;100.00;100666.50;1731335;83;21096;-76
2022/05/31 00:43:27;;;;;;;17.57;13.08;;;;;;;18.45;100.00;100671.27;1727226;83;21533;-76
2022/05/31 00:46:04;;;;;;;15.32;12.10;;;;;;;18.71;100.00;100667.15;1731479;83;21132;-75
2022/05/31 00:48:42;;;;;;;14.28;11.75;;;;;;;18.92;100.00;100666.86;1731750;83;21020;-76
2022/05/31 00:51:13;;;;;;;17.52;11.80;;;;;;;18.88;100.00;100671.95;1728939;83;21183;-76
2022/05/31 00:53:45;;;;;;;18.32;11.12;;;;;;;18.30;100.00;100680.20;1731722;83;21012;-76
2022/05/31 00:56:20;;;;;;;15.68;11.65;;;;;;;18.22;100.00;100672.47;1731382;83;21099;-76
2022/05/31 00:59:01;;;;;;;15.28;12.20;;;;;;;18.17;100.00;100675.90;1731630;83;21064;-77
2022/05/31 01:01:35;;;;;;;14.73;12.13;;;;;;;18.13;100.00;100669.25;1731507;83;21529;-76
2022/05/31 01:04:03;;;;;;;19.92;12.53;;;;;;;18.15;100.00;100671.27;1731585;83;21059;-76
2022/05/31 01:06:33;;;;;;;16.15;13.43;;;;;;;18.07;100.00;100668.88;1731677;82;21593;-76
2022/05/31 01:09:01;;;;;;;15.40;13.18;;;;;;;18.03;100.00;100668.74;1725689;83;21067;-76
2022/05/31 01:11:38;;;;;;;17.70;13.35;;;;;;;18.01;100.00;100664.94;1722636;83;21038;-75
2022/05/31 01:14:26;;;;;;;16.93;13.18;;;;;;;18.00;100.00;100669.77;1722859;83;21561;-75
2022/05/31 01:17:03;;;;;;;16.65;14.03;;;;;;;18.04;100.00;100672.99;1693946;83;21056;-75
2022/05/31 01:20:02;;;;;;;19.92;14.13;;;;;;;18.02;100.00;100671.80;1722385;83;21033;-75
2022/05/31 01:22:44;;;;;;;21.23;13.95;;;;;;;17.97;100.00;100677.34;1722212;83;21057;-76
2022/05/31 01:25:35;;;;;;;16.15;12.55;;;;;;;18.00;100.00;100672.38;1722229;83;21529;-76
2022/05/31 01:28:46;;;;;;;18.23;13.32;;;;;;;17.95;100.00;100683.62;1722399;83;21053;-75
2022/05/31 01:31:31;;;;;;;19.37;14.13;;;;;;;17.96;100.00;100680.91;1722572;83;21081;-75
2022/05/31 01:34:40;;;;;;;16.97;14.15;;;;;;;18.19;100.00;100681.83;1722206;83;21522;-75
2022/05/31 01:37:07;;;;;;;22.50;14.53;;;;;;;17.95;100.00;100683.14;1722533;83;21097;-77
2022/05/31 01:39:51;;;;;;;19.27;13.83;;;;;;;17.95;100.00;100680.53;1722305;83;21045;-76
2022/05/31 01:42:41;;;;;;;16.35;14.10;;;;;;;17.97;100.00;100681.73;1722254;83;21052;-76
2022/05/31 01:45:22;;;;;;;21.27;15.13;;;;;;;18.57;100.00;100677.30;1722364;83;21556;-76
2022/05/31 01:47:50;;;;;;;21.37;13.10;;;;;;;18.27;100.00;100676.51;1720992;83;21052;-74
2022/05/31 01:50:20;;;;;;;14.50;12.82;;;;;;;18.03;100.00;100675.25;1722318;83;21086;-76
2022/05/31 01:52:50;;;;;;;15.53;11.70;;;;;;;17.93;100.00;100678.99;1722821;83;21501;-75
2022/05/31 01:55:20;;;;;;;13.48;11.97;;;;;;;17.98;100.00;100680.33;1722574;83;21009;-75
2022/05/31 01:57:52;;;;;;;15.55;12.50;;;;;;;18.05;100.00;100682.48;1722490;83;21537;-75
2022/05/31 02:00:22;;;;;;;14.70;11.57;;;;;;;18.01;100.00;100680.56;1722669;83;21045;-75
2022/05/31 02:02:53;;;;;;;14.25;11.35;;;;;;;18.05;100.00;100677.28;1696047;83;21061;-75
2022/05/31 02:05:21;;;;;;;14.78;10.88;;;;;;;18.22;100.00;100686.80;1722397;83;21073;-75
2022/05/31 02:07:59;;;;;;;13.30;10.75;;;;;;;18.22;100.00;100693.31;1722253;83;21549;-74
2022/05/31 02:10:27;;;;;;;15.93;11.83;;;;;;;18.16;100.00;100682.52;1722261;83;21608;-75
2022/05/31 02:12:56;;;;;;;14.80;10.88;;;;;;;18.69;100.00;100688.59;1722288;83;21084;-75
2022/05/31 02:15:39;;;;;;;14.98;12.00;;;;;;;18.25;100.00;100686.21;1722789;83;21533;-75
2022/05/31 02:19:15;;;;;;;15.40;11.88;;;;;;;18.19;100.00;100687.04;1722275;83;21128;-75
2022/05/31 02:21:08;;;;;;;15.00;12.03;;;;;;;18.17;100.00;100684.20;1681650;83;21038;-75
2022/05/31 02:23:35;;;;;;;15.72;12.40;;;;;;;18.47;100.00;100683.70;1722302;83;21806;-75
2022/05/31 02:26:02;;;;;;;16.30;12.45;;;;;;;18.56;100.00;100679.09;1722469;83;21049;-75
2022/05/31 02:28:30;;;;;;;16.60;13.18;;;;;;;18.80;100.00;100682.97;1722256;83;21049;-75
2022/05/31 02:30:57;;;;;;;17.35;12.07;;;;;;;18.90;100.00;100679.19;1722507;83;21053;-75
2022/05/31 02:33:24;;;;;;;16.48;12.43;;;;;;;18.85;100.00;100683.09;1722218;83;21037;-75
2022/05/31 02:35:52;;;;;;;16.73;11.70;;;;;;;18.87;100.00;100678.59;1722462;83;21517;-75
2022/05/31 02:38:20;;;;;;;15.43;11.85;;;;;;;18.97;100.00;100683.45;1722880;83;21088;-74
2022/05/31 02:40:47;;;;;;;15.05;11.73;;;;;;;19.25;100.00;100673.02;1722236;83;21081;-75
2022/05/31 02:43:14;;;;;;;20.75;15.28;;;;;;;19.38;100.00;100677.65;1722518;83;21080;-75
2022/05/31 02:45:41;;;;;;;21.97;14.93;;;;;;;19.50;100.00;100679.74;1722300;83;21049;-74
2022/05/31 02:48:08;;;;;;;17.70;14.07;;;;;;;19.62;100.00;100674.03;1722175;83;20993;-75
2022/05/31 02:50:40;;;;;;;19.20;14.10;;;;;;;19.71;100.00;100679.88;1722443;83;21021;-74
2022/05/31 02:53:07;;;;;;;22.90;15.65;;;;;;;19.72;100.00;100680.21;1722579;83;21033;-74
2022/05/31 02:55:34;;;;;;;22.20;15.23;;;;;;;19.73;100.00;100682.38;1722535;83;21014;-75
2022/05/31 02:58:09;;;;;;;20.43;14.40;;;;;;;19.79;100.00;100680.09;1686079;83;21573;-74
2022/05/31 03:00:55;;;;;;;19.23;14.65;;;;;;;19.79;100.00;100680.09;1722527;83;21049;-75
2022/05/31 03:03:24;;;;;;;16.40;14.33;;;;;;;19.80;100.00;100675.20;1693603;83;21136;-75
2022/05/31 03:06:01;;;;;;;18.35;13.90;;;;;;;19.77;100.00;100676.77;1661113;86;21056;-74
2022/05/31 03:08:36;;;;;;;16.95;13.83;;;;;;;19.80;100.00;100675.20;1721863;83;21066;-74
2022/05/31 03:11:51;;;;;;;21.37;14.43;;;;;;;19.90;100.00;100678.39;1721141;83;21057;-74
2022/05/31 03:14:37;;;;;;;17.02;14.30;;;;;;;19.94;100.00;100675.40;1722288;83;21085;-74
2022/05/31 03:17:19;;;;;;;19.45;15.08;;;;;;;19.94;100.00;100676.70;1718539;83;21533;-74
2022/05/31 03:19:53;;;;;;;20.90;14.53;;;;;;;20.00;100.00;100672.77;1722282;83;21065;-75
2022/05/31 03:22:24;;;;;;;20.97;14.58;;;;;;;20.00;100.00;100674.08;1722044;83;21092;-75
2022/05/31 03:25:08;;;;;;;19.05;14.73;;;;;;;19.98;100.00;100665.53;1722536;83;21065;-75
2022/05/31 03:27:37;;;;;;;20.32;15.43;;;;;;;20.09;100.00;100668.09;1722203;83;21073;-74
2022/05/31 03:30:06;;;;;;;19.87;14.90;;;;;;;20.17;100.00;100667.02;1722231;83;21105;-75
2022/05/31 03:32:36;;;;;;;18.27;14.78;;;;;;;20.34;100.00;100672.63;1722675;83;21020;-75
2022/05/31 03:35:05;;;;;;;24.75;16.05;;;;;;;20.50;100.00;100678.25;1722269;83;21101;-75
2022/05/31 03:37:33;;;;;;;21.77;15.75;;;;;;;20.58;100.00;100675.00;1722504;83;21048;-75
2022/05/31 03:40:01;;;;;;;22.00;16.77;;;;;;;20.72;100.00;100677.77;1722401;83;21049;-75
2022/05/31 03:42:29;;;;;;;24.95;18.35;;;;;;;20.81;100.00;100682.23;1719608;83;21045;-75
2022/05/31 03:44:57;;;;;;;40.88;29.63;;;;;;;20.87;100.00;100677.79;1722120;83;21089;-75
2022/05/31 03:47:27;;;;;;;27.82;19.65;;;;;;;21.04;100.00;100687.30;1720116;83;21049;-75
2022/05/31 03:50:01;;;;;;;25.72;15.88;;;;;;;21.27;100.00;100680.92;1688014;83;21013;-75
2022/05/31 03:52:28;;;;;;;23.27;17.25;;;;;;;21.60;100.00;100677.17;1722505;83;21085;-75
2022/05/31 03:54:56;;;;;;;22.02;15.58;;;;;;;21.63;100.00;100681.30;1719439;83;21045;-75
2022/05/31 03:57:31;;;;;;;26.82;17.70;;;;;;;21.84;100.00;100682.53;1714730;83;21036;-74
2022/05/31 04:00:08;;;;;;;26.27;19.92;;;;;;;21.88;100.00;100683.06;1722433;83;21069;-74
2022/05/31 04:02:55;;;;;;;23.18;16.95;;;;;;;21.99;100.00;100682.94;1722377;83;21598;-74
2022/05/31 04:05:24;;;;;;;29.80;22.73;;;;;;;21.95;100.00;100680.25;1722118;83;21034;-74
2022/05/31 04:07:55;;;;;;;31.60;23.70;;;;;;;22.04;100.00;100683.38;1722326;83;21025;-75
2022/05/31 04:10:22;;;;;;;20.35;17.32;;;;;;;22.19;100.00;100672.79;1730476;83;21589;-74
2022/05/31 04:12:50;;;;;;;21.48;15.58;;;;;;;22.32;100.00;100673.02;1731549;83;21001;-74
2022/05/31 04:15:17;;;;;;;20.00;15.45;;;;;;;22.40;100.00;100666.12;1731242;83;21044;-73
2022/05/31 04:17:45;;;;;;;20.17;14.87;;;;;;;22.36;100.00;100670.45;1731167;83;21131;-74
2022/05/31 04:20:12;;;;;;;20.92;14.78;;;;;;;22.56;100.00;100678.63;1731466;83;21056;-74
2022/05/31 04:22:39;;;;;;;19.40;14.15;;;;;;;22.59;100.00;100670.98;1731301;83;21045;-74
2022/05/31 04:25:09;;;;;;;24.32;14.33;;;;;;;22.81;100.00;100671.14;1727032;83;21044;-74
2022/05/31 04:27:43;;;;;;;19.62;13.03;;;;;;;22.87;100.00;100671.88;1704428;83;21127;-75
2022/05/31 04:30:29;;;;;;;18.15;12.65;;;;;;;23.33;100.00;100657.52;1731553;83;21048;-75
2022/05/31 04:33:15;;;;;;;16.93;11.75;;;;;;;23.27;100.00;100660.73;1731558;83;21092;-73
2022/05/31 04:35:43;;;;;;;18.67;12.50;;;;;;;23.62;100.00;100660.45;1731804;83;21615;-74
2022/05/31 04:38:10;;;;;;;18.20;12.37;;;;;;;23.63;100.00;100660.80;1731307;83;21537;-74
2022/05/31 04:40:53;;;;;;;17.77;12.68;;;;;;;23.69;100.00;100662.34;1730728;83;21029;-75
2022/05/31 04:43:39;;;;;;;16.82;12.90;;;;;;;23.74;100.00;100660.11;1731449;83;21100;-74
2022/05/31 04:46:28;;;;;;;22.07;12.47;;;;;;;24.02;100.00;100660.03;1731245;83;21061;-74
2022/05/31 04:48:59;;;;;;;17.32;12.00;;;;;;;24.12;100.00;100658.14;1729137;83;21173;-74
2022/05/31 04:51:30;;;;;;;16.57;13.05;;;;;;;24.29;100.00;100664.37;1731363;83;21109;-74
2022/05/31 04:53:59;;;;;;;16.80;11.75;;;;;;;24.29;100.00;100666.16;1731522;83;21016;-74
2022/05/31 04:56:39;;;;;;;18.48;11.38;;;;;;;24.63;100.00;100662.31;1731195;83;21037;-75
2022/05/31 04:59:07;;;;;;;22.17;11.38;;;;;;;24.42;100.00;100661.83;1731536;83;21052;-74
2022/05/31 05:01:37;;;;;;;14.98;10.72;;;;;;;24.44;100.00;100665.95;1731125;83;21021;-74
2022/05/31 05:04:06;;;;;;;16.07;11.45;;;;;;;24.55;100.00;100667.52;1730671;83;21099;-75
2022/05/31 05:06:37;;;;;;;15.90;10.90;;;;;;;24.80;100.00;100664.56;1730801;83;21044;-74
2022/05/31 05:09:06;;;;;;;15.60;12.88;;;;;;;25.30;99.31;100669.06;1729161;83;21061;-74
2022/05/31 05:11:34;;;;;;;20.62;12.90;;;;;;;25.34;98.97;100671.70;1722865;83;21053;-74
2022/05/31 05:14:03;;;;;;;16.57;12.63;;;;;;;25.10;98.86;100671.59;1716763;83;21009;-74
2022/05/31 05:16:38;;;;;;;16.97;12.30;;;;;;;25.13;99.58;100666.02;1722438;82;21242;-75
2022/05/31 05:19:06;;;;;;;25.62;13.20;;;;;;;25.19;100.00;100665.39;1722348;83;21065;-74
2022/05/31 05:21:35;;;;;;;19.95;12.18;;;;;;;25.10;98.76;100661.91;1722296;83;21060;-74
2022/05/31 05:24:03;;;;;;;21.93;11.03;;;;;;;25.00;98.39;100665.16;1722278;83;21057;-74
2022/05/31 05:26:32;;;;;;;17.67;11.50;;;;;;;25.02;97.24;100667.14;1722510;83;21462;-73
2022/05/31 05:31:52;;;;;;;17.75;13.35;;;;;;;25.39;95.62;100681.29;1722504;83;21503;-73
2022/05/31 05:34:36;;;;;;;20.48;13.30;;;;;;;25.65;96.60;100675.58;1722245;83;21065;-74
2022/05/31 05:37:04;;;;;;;19.92;12.00;;;;;;;25.84;96.23;100670.52;1722836;82;21608;-74
2022/05/31 05:39:33;;;;;;;20.70;13.55;;;;;;;25.89;94.50;100671.68;1722893;83;21045;-73
2022/05/31 05:42:18;;;;;;;24.40;14.43;;;;;;;25.95;94.05;100668.89;1722507;83;21065;-74
2022/05/31 05:44:58;;;;;;;24.45;12.45;;;;;;;25.97;93.30;100664.27;1722230;83;21065;-74
2022/05/31 05:47:25;;;;;;;16.27;12.73;;;;;;;25.98;92.61;100664.11;1721948;83;21549;-74
2022/05/31 05:49:52;;;;;;;16.93;12.37;;;;;;;26.12;92.15;100658.68;1722605;83;21089;-73
2022/05/31 05:52:22;;;;;;;23.47;15.85;;;;;;;26.03;92.43;100655.70;1693771;83;21073;-73
2022/05/31 05:55:08;;;;;;;25.88;12.60;;;;;;;26.03;92.43;100655.70;1721539;83;21052;-74
2022/05/31 05:57:54;;;;;;;20.08;11.95;;;;;;;26.21;91.41;100644.16;1722578;83;21064;-74
2022/05/31 06:00:45;;;;;;;19.07;12.58;;;;;;;26.18;90.57;100644.82;1722417;83;21502;-74
2022/05/31 06:03:23;;;;;;;23.32;13.72;;;;;;;26.19;90.02;100641.17;1722011;83;21097;-73
2022/05/31 06:05:53;;;;;;;20.55;12.28;;;;;;;26.23;89.61;100644.31;1721356;83;21010;-74
2022/05/31 06:08:25;;;;;;;28.70;21.55;;;;;;;26.34;88.88;100636.06;1722541;83;21024;-73
2022/05/31 06:11:04;;;;;;;18.25;11.65;;;;;;;26.60;88.41;100644.78;1729511;83;21080;-74
2022/05/31 06:13:42;;;;;;;16.90;11.97;;;;;;;26.83;87.71;100636.97;1731492;83;21036;-72
2022/05/31 06:16:11;;;;;;;22.48;11.83;;;;;;;26.83;87.71;100636.97;1730191;83;21041;-73
2022/05/31 06:18:46;;;;;;;19.23;11.68;;;;;;;27.06;86.89;100642.31;1730685;83;21172;-74
2022/05/31 06:21:14;;;;;;;16.32;10.90;;;;;;;27.24;84.63;100654.80;1731522;83;21567;-73
2022/05/31 06:23:43;;;;;;;20.55;11.03;;;;;;;27.25;84.49;100658.26;1731841;83;21056;-74
2022/05/31 06:26:13;;;;;;;19.73;11.55;;;;;;;27.40;84.96;100668.94;1731055;83;21076;-73
2022/05/31 06:31:32;;;;;;;18.85;11.15;;;;;;;27.76;82.89;100672.66;1718172;83;21026;-74
2022/05/31 06:33:59;;;;;;;22.13;12.03;;;;;;;27.78;80.75;100677.28;1736562;82;21005;-74
2022/05/31 06:36:29;;;;;;;29.23;20.80;;;;;;;27.69;80.52;100675.67;1739516;81;21509;-74
2022/05/31 06:38:57;;;;;;;18.15;11.38;;;;;;;27.65;80.76;100675.70;1736571;82;21049;-74
2022/05/31 06:41:24;;;;;;;16.62;11.20;;;;;;;27.35;83.48;100680.86;1736488;81;21091;-74
2022/05/31 06:43:54;;;;;;;18.82;11.33;;;;;;;27.70;82.63;100677.84;1737867;81;21004;-73
2022/05/31 06:46:40;;;;;;;18.30;11.12;;;;;;;27.54;82.20;100682.73;1736433;83;21032;-74
2022/05/31 06:49:12;;;;;;;16.87;10.98;;;;;;;27.42;82.47;100681.48;1707514;83;21025;-74
2022/05/31 06:57:57;;;;;;;14.00;9.75;;;;;;;28.09;79.73;100672.44;1736045;81;21364;-74
2022/05/31 07:00:26;;;;;;;15.35;10.00;;;;;;;28.21;77.72;100672.84;1732882;82;21020;-73
2022/05/31 07:02:55;;;;;;;18.90;9.73;;;;;;;28.48;78.86;100667.95;1736019;83;21587;-73
2022/05/31 07:05:24;;;;;;;17.42;8.80;;;;;;;28.45;78.21;100675.76;1709951;83;21002;-73
2022/05/31 07:07:55;;;;;;;18.23;9.88;;;;;;;28.63;77.99;100668.82;1736293;83;21105;-75
2022/05/31 07:10:40;;;;;;;16.23;9.68;;;;;;;28.52;77.84;100673.23;1703505;84;21622;-76
2022/05/31 07:13:17;;;;;;;13.95;8.85;;;;;;;28.54;76.62;100665.92;1727709;83;21036;-74
2022/05/31 07:16:02;;;;;;;16.90;9.95;;;;;;;28.61;76.25;100673.95;1736031;83;21077;-76
2022/05/31 07:18:48;;;;;;;16.50;9.33;;;;;;;28.90;77.52;100671.83;1734858;81;21117;-74
2022/05/31 07:21:15;;;;;;;16.25;9.33;;;;;;;28.71;76.86;100667.88;1734429;83;21066;-75
2022/05/31 07:23:43;;;;;;;15.13;8.80;;;;;;;28.95;76.69;100670.27;1734846;82;21011;-75
2022/05/31 07:26:12;;;;;;;14.33;9.05;;;;;;;28.95;75.59;100666.78;1734418;83;21027;-75
2022/05/31 07:28:40;;;;;;;14.10;8.48;;;;;;;29.27;72.79;100662.11;1734879;83;21530;-76
2022/05/31 07:31:09;;;;;;;16.50;8.45;;;;;;;29.30;74.41;100667.86;1732156;82;21065;-74
2022/05/31 07:33:39;;;;;;;15.80;8.60;;;;;;;29.72;73.38;100664.13;1730082;83;21070;-76
2022/05/31 07:36:08;;;;;;;16.85;9.28;;;;;;;29.73;72.05;100664.45;1731898;83;20990;-75
2022/05/31 07:38:38;;;;;;;14.93;8.50;;;;;;;29.33;73.04;100666.66;1730845;82;21034;-76
2022/05/31 07:41:05;;;;;;;14.83;8.78;;;;;;;29.58;72.71;100664.47;1731874;83;21023;-75
2022/05/31 07:43:32;;;;;;;16.30;8.88;;;;;;;29.71;72.88;100662.50;1732150;83;21011;-75
2022/05/31 07:46:05;;;;;;;15.32;9.13;;;;;;;29.66;71.74;100666.99;1731774;83;21066;-75
2022/05/31 07:48:34;;;;;;;18.80;9.45;;;;;;;29.70;71.26;100659.48;1732050;83;21018;-75
2022/05/31 07:51:03;;;;;;;18.30;9.48;;;;;;;29.77;71.90;100659.60;1731261;83;21042;-76
2022/05/31 07:53:33;;;;;;;20.92;10.25;;;;;;;30.16;71.58;100667.87;1727539;83;21010;-75
2022/05/31 07:56:20;;;;;;;17.87;10.00;;;;;;;29.56;71.62;100659.38;1731595;83;21038;-75
2022/05/31 07:59:06;;;;;;;18.65;10.35;;;;;;;29.74;71.46;100658.94;1709247;83;21597;-75
2022/05/31 08:01:39;;;;;;;19.70;10.53;;;;;;;30.45;70.07;100654.63;1728328;83;21070;-74
2022/05/31 08:04:16;;;;;;;23.50;10.80;;;;;;;30.07;70.32;100658.43;1730961;83;21687;-75
2022/05/31 08:06:44;;;;;;;19.00;11.10;;;;;;;30.08;71.31;100657.40;1731254;83;21031;-74
2022/05/31 08:09:11;;;;;;;20.68;11.90;;;;;;;30.08;70.83;100656.59;1730725;83;21023;-75
2022/05/31 08:11:40;;;;;;;18.75;12.15;;;;;;;30.51;69.23;100653.33;1730692;83;21400;-76
2022/05/31 08:14:09;;;;;;;22.35;12.35;;;;;;;30.74;68.91;100646.94;1730885;83;21082;-75
2022/05/31 08:16:36;;;;;;;21.07;11.85;;;;;;;30.78;68.47;100644.20;1730944;83;21022;-76
2022/05/31 08:19:04;;;;;;;20.05;12.88;;;;;;;30.40;70.41;100644.59;1730979;83;21133;-74
2022/05/31 08:21:32;;;;;;;23.27;13.45;;;;;;;30.05;70.35;100647.67;1731092;83;21045;-75
2022/05/31 08:24:04;;;;;;;22.55;13.85;;;;;;;29.91;71.82;100636.15;1730992;83;21058;-76
2022/05/31 08:26:32;;;;;;;27.22;13.93;;;;;;;30.04;71.18;100640.22;1731119;83;21117;-76
2022/05/31 08:28:59;;;;;;;21.25;14.70;;;;;;;30.50;71.85;100641.08;1730855;83;21011;-75
2022/05/31 08:31:31;;;;;;;24.50;14.93;;;;;;;30.31;70.10;100640.44;1730850;82;22309;-75
2022/05/31 08:33:58;;;;;;;26.52;16.20;;;;;;;30.43;69.82;100641.53;1731134;83;20998;-75
2022/05/31 08:36:26;;;;;;;25.95;15.30;;;;;;;30.30;70.14;100632.98;1731437;83;20983;-75
2022/05/31 08:38:54;;;;;;;25.65;15.95;;;;;;;30.29;70.07;100628.67;1731221;83;20998;-75
2022/05/31 08:41:31;;;;;;;27.00;16.55;;;;;;;30.59;68.82;100635.61;1731833;83;21066;-75
2022/05/31 08:44:22;;;;;;;28.35;16.93;;;;;;;30.95;69.18;100620.78;1732307;83;21502;-75
2022/05/31 08:47:22;;;;;;;28.40;17.02;;;;;;;31.34;68.47;100628.03;1732236;83;21022;-74
2022/05/31 08:53:08;;;;;;;30.05;15.88;;;;;;;31.15;66.79;100625.64;1731890;83;21054;-75
2022/05/31 08:58:56;;;;;;;26.97;16.12;;;;;;;31.08;66.89;100613.34;1690498;83;21030;-74
2022/05/31 09:01:28;;;;;;;21.77;14.43;;;;;;;31.13;67.73;100610.92;1693299;83;21026;-74
2022/05/31 09:04:17;;;;;;;26.48;14.45;;;;;;;31.52;65.60;100606.72;1731880;83;21046;-73
2022/05/31 09:06:55;;;;;;;22.60;13.38;;;;;;;31.69;65.17;100602.64;1731744;83;21026;-72
2022/05/31 09:09:47;;;;;;;21.75;11.60;;;;;;;31.67;64.80;100608.69;1731819;83;21113;-74
2022/05/31 09:12:41;;;;;;;21.15;13.15;;;;;;;32.27;62.29;100609.98;1731860;83;21507;-74
2022/05/31 09:15:19;;;;;;;23.38;13.53;;;;;;;32.04;63.22;100614.43;1731374;82;21592;-73
2022/05/31 09:18:16;;;;;;;17.17;10.50;;;;;;;32.47;61.68;100604.59;1731990;83;21137;-73
2022/05/31 09:20:54;;;;;;;12.63;8.90;;;;;;;32.26;63.42;100608.84;1731299;83;21377;-74
2022/05/31 09:23:30;;;;;;;14.05;7.45;;;;;;;32.36;64.91;100603.09;1731653;83;21018;-74
2022/05/31 09:26:08;;;;;;;15.75;6.70;;;;;;;32.28;61.12;100604.97;1731116;83;21538;-73
2022/05/31 09:28:43;;;;;;;10.82;6.40;;;;;;;32.45;63.26;100607.18;1731202;83;21077;-74
2022/05/31 09:31:31;;;;;;;10.78;6.37;;;;;;;32.80;62.50;100611.67;1731455;82;21050;-74
2022/05/31 09:34:46;;;;;;;13.40;6.92;;;;;;;32.79;60.97;100606.55;1731210;83;21026;-73
2022/05/31 09:37:31;;;;;;;12.20;6.80;;;;;;;32.61;60.29;100613.92;1732247;83;21074;-73
2022/05/31 09:40:29;;;;;;;11.88;6.85;;;;;;;32.57;60.43;100610.86;1731932;83;21066;-73
2022/05/31 09:43:02;;;;;;;12.58;7.35;;;;;;;33.01;59.65;100614.57;1731036;82;21026;-73
2022/05/31 09:45:33;;;;;;;11.70;7.50;;;;;;;33.35;60.53;100610.39;1720996;83;21070;-74
2022/05/31 09:48:05;;;;;;;10.93;6.70;;;;;;;33.19;59.54;100615.20;1731921;83;21047;-74
2022/05/31 09:50:33;;;;;;;12.95;6.33;;;;;;;32.99;60.61;100608.63;1732191;83;21027;-73
2022/05/31 09:57:05;;;;;;;10.23;7.12;;;;;;;33.24;60.23;100607.38;1732137;83;21070;-73
2022/05/31 09:58:42;;;;;;;11.93;6.70;;;;;;;33.39;59.47;100614.27;1731882;83;20999;-74
2022/05/31 10:01:29;;;;;;;10.38;6.20;;;;;;;33.70;59.98;100612.94;1731770;83;21066;-72
2022/05/31 10:04:10;;;;;;;15.88;6.95;;;;;;;33.68;56.38;100608.33;1731052;83;21467;-72
2022/05/31 10:06:55;;;;;;;10.60;6.50;;;;;;;33.32;56.08;100606.31;1732186;83;21045;-73
2022/05/31 10:09:36;;;;;;;11.73;6.12;;;;;;;33.43;57.84;100609.60;1731320;82;21483;-72
2022/05/31 10:12:19;;;;;;;8.90;6.25;;;;;;;33.31;57.87;100604.17;1732217;83;21077;-71
2022/05/31 10:14:51;;;;;;;13.25;5.95;;;;;;;33.41;57.01;100608.19;1731517;83;21027;-72
2022/05/31 10:17:42;;;;;;;13.55;6.45;;;;;;;33.62;55.32;100607.88;1732114;83;21117;-73
2022/05/31 10:20:22;;;;;;;9.98;6.10;;;;;;;33.81;58.87;100613.26;1732248;83;21095;-72
2022/05/31 10:23:13;;;;;;;8.88;6.15;;;;;;;33.72;57.98;100604.72;1732071;83;21019;-73
2022/05/31 10:26:00;;;;;;;13.75;5.95;;;;;;;33.73;54.75;100604.47;1705868;83;20995;-72
2022/05/31 10:28:55;;;;;;;9.33;5.85;;;;;;;33.59;56.17;100600.78;1686710;83;21527;-73
2022/05/31 10:31:35;;;;;;;9.05;5.33;;;;;;;34.30;57.56;100607.03;1729926;82;21051;-74
2022/05/31 10:34:07;;;;;;;11.03;5.80;;;;;;;35.02;55.58;100606.94;1705558;83;21011;-74
2022/05/31 10:36:49;;;;;;;13.53;5.70;;;;;;;35.36;52.22;100608.09;1681484;83;26551;-75
2022/05/31 10:39:24;;;;;;;10.75;5.10;;;;;;;35.36;53.50;100599.25;1728869;83;21559;-74
2022/05/31 10:41:55;;;;;;;7.72;4.80;;;;;;;35.70;52.07;100601.72;1731995;83;20999;-73
2022/05/31 10:44:34;;;;;;;14.20;5.78;;;;;;;36.04;50.42;100600.61;1732131;83;21010;-73
2022/05/31 10:47:15;;;;;;;9.60;5.08;;;;;;;36.02;50.70;100596.82;1730578;83;21506;-74
2022/05/31 10:49:45;;;;;;;9.33;5.25;;;;;;;36.09;50.00;100599.37;1731937;83;21558;-73
2022/05/31 10:52:41;;;;;;;9.50;5.00;;;;;;;35.77;49.63;100589.54;1731968;83;21070;-72
2022/05/31 10:55:40;;;;;;;9.03;5.08;;;;;;;34.83;51.90;100592.77;1732029;83;21010;-73
2022/05/31 10:58:25;;;;;;;9.08;5.67;;;;;;;34.97;52.26;100589.40;1731578;83;21015;-73
2022/05/31 11:01:20;;;;;;;14.33;5.60;;;;;;;35.38;52.26;100589.13;1732179;83;21007;-73
2022/05/31 11:04:07;;;;;;;12.10;5.30;;;;;;;35.40;53.60;100591.05;1731867;83;21090;-73
2022/05/31 11:06:50;;;;;;;10.75;5.03;;;;;;;35.61;49.80;100587.83;1731695;83;21026;-73
2022/05/31 11:13:03;;;;;;;9.80;5.15;;;;;;;36.19;51.11;100580.86;1731766;83;21619;-75
2022/05/31 11:15:44;;;;;;;9.15;5.35;;;;;;;35.81;50.30;100581.33;1731940;83;21534;-73
2022/05/31 11:18:44;;;;;;;11.48;5.12;;;;;;;35.37;49.59;100574.12;1730730;82;21583;-72
2022/05/31 11:21:32;;;;;;;10.93;5.78;;;;;;;35.51;52.08;100574.20;1693753;83;21083;-73
2022/05/31 11:24:51;;;;;;;9.23;5.30;;;;;;;35.78;51.66;100571.91;1732671;83;21034;-73
2022/05/31 11:28:05;;;;;;;9.45;5.15;;;;;;;35.99;50.22;100569.67;1707058;83;21575;-76
2022/05/31 11:30:53;;;;;;;13.22;5.37;;;;;;;36.04;50.94;100569.27;1728235;82;21070;-74
2022/05/31 11:33:35;;;;;;;13.22;5.20;;;;;;;36.27;50.25;100567.62;1731836;83;21566;-76
2022/05/31 11:36:26;;;;;;;11.10;5.05;;;;;;;36.13;48.03;100561.67;1732477;83;21031;-74
2022/05/31 11:39:30;;;;;;;10.90;4.53;;;;;;;35.97;49.00;100556.54;1731849;83;21073;-75
2022/05/31 11:42:37;;;;;;;12.40;5.10;;;;;;;35.77;49.07;100555.56;1709001;83;21038;-74
2022/05/31 11:45:34;;;;;;;12.53;5.30;;;;;;;34.49;49.66;100559.76;1730299;83;21157;-76
2022/05/31 11:48:34;;;;;;;10.20;5.10;;;;;;;35.32;49.40;100554.72;1731014;82;21125;-73
2022/05/31 11:51:09;;;;;;;13.30;5.50;;;;;;;35.55;49.50;100551.27;1731213;83;21066;-74
2022/05/31 11:54:04;;;;;;;15.25;5.62;;;;;;;36.13;49.17;100540.23;1730671;83;21126;-74
2022/05/31 11:56:55;;;;;;;14.58;5.53;;;;;;;36.71;46.02;100544.38;1696052;83;21070;-75
2022/05/31 11:59:36;;;;;;;9.58;4.90;;;;;;;36.87;46.92;100539.58;1731059;83;21082;-75
2022/05/31 12:02:30;;;;;;;14.77;5.57;;;;;;;36.86;45.58;100537.94;1731935;83;21632;-75
2022/05/31 12:05:09;;;;;;;12.40;5.42;;;;;;;36.62;47.34;100538.03;1731402;83;21066;-75
2022/05/31 12:07:45;;;;;;;10.00;5.05;;;;;;;36.17;48.77;100531.23;1731198;83;21087;-75
2022/05/31 12:10:27;;;;;;;17.35;5.60;;;;;;;35.68;48.72;100528.83;1730533;83;21062;-75
2022/05/31 12:12:58;;;;;;;11.43;5.28;;;;;;;35.57;49.21;100521.59;1731252;83;21039;-76
2022/05/31 12:15:32;;;;;;;6.47;4.47;;;;;;;35.53;48.73;100517.76;1731226;83;21566;-74